Grete Maersk — OYCY2 — position and weather

sailwx.info

Track history (hours):
 
Tides and Currents Weather Stations Pressure Air Temp Water Temp Dewpoint Dewpoint Depression Visibility Wind Speed Wind Dir Waves Ship Positions

Grete Maersk

Last reported at 2017-Jun-10 06:02 UTC. Time now 2017-Jun-24 18:58 UTC.
Position N 01°14' E 103°25'.
Warning: this ship's position is 14 days out of date.

MMSI: 218824136.

Date/timePositionNaut miles runAvg speedWind from/ knotsBaromVisibWave heightAir tempDewpointWater temp
2017-Jun-10 06:02N 01°14' E 103°25'117.2
2017-Jun-10 05:58N 01°14' E 103°26'715.4
2017-Jun-10 05:29N 01°12' E 103°33'612.4
2017-Jun-10 04:59N 01°11' E 103°39'611.6
2017-Jun-10 04:30N 01°08' E 103°44'611.2
2017-Jun-10 04:00N 01°11' E 103°49'2 4.9
2017-Jun-10 03:31N 01°13' E 103°48'4 7.4
2017-Jun-10 03:01N 01°16' E 103°45'1 1.0
2017-Jun-10 02:31N 01°17' E 103°45'0 0.1
2017-Jun-10 02:01N 01°17' E 103°45'0 0.0
2017-Jun-10 01:31N 01°17' E 103°45'0 0.0
2017-Jun-10 01:00N 01°17' E 103°45'0 0.0
2017-Jun-10 00:31N 01°17' E 103°45'0 0.0
2017-Jun-10 00:01N 01°17' E 103°45'0 0.0
2017-Jun-09 23:30N 01°17' E 103°45'0 0.0
2017-Jun-09 23:01N 01°17' E 103°45'0 0.0
2017-Jun-09 22:31N 01°17' E 103°45'0 0.0
2017-Jun-09 22:01N 01°17' E 103°45'0 0.0
2017-Jun-09 21:31N 01°17' E 103°45'0 0.0
2017-Jun-09 21:01N 01°17' E 103°45'0 0.0
2017-Jun-09 20:30N 01°17' E 103°45'0 0.0
2017-Jun-09 20:00N 01°17' E 103°45'0 0.0
2017-Jun-09 19:30N 01°17' E 103°45'0 0.0
2017-Jun-09 19:00N 01°17' E 103°45'0 0.0
2017-Jun-09 18:30N 01°17' E 103°45'0 0.0
2017-Jun-09 18:00N 01°17' E 103°45'0 0.0
2017-Jun-09 17:31N 01°17' E 103°45'0 0.0
2017-Jun-09 17:00N 01°17' E 103°45'0 0.0
2017-Jun-09 16:30N 01°17' E 103°45'0 0.0
2017-Jun-09 16:00N 01°17' E 103°45'0 0.0
2017-Jun-09 15:31N 01°17' E 103°45'0 0.0
2017-Jun-09 15:00N 01°17' E 103°45'0 0.0
2017-Jun-09 14:30N 01°17' E 103°45'0 0.0
2017-Jun-09 13:30N 01°17' E 103°45'0 0.0
2017-Jun-09 13:01N 01°17' E 103°45'0 0.0
2017-Jun-09 12:30N 01°17' E 103°45'0 0.0
2017-Jun-09 12:01N 01°17' E 103°45'0 0.0
2017-Jun-09 11:31N 01°17' E 103°45'0 0.0
2017-Jun-09 11:01N 01°17' E 103°45'0 0.0
2017-Jun-09 10:30N 01°17' E 103°45'0 0.0
2017-Jun-09 10:01N 01°17' E 103°45'0 0.0
2017-Jun-09 09:31N 01°17' E 103°45'0 0.0
2017-Jun-09 09:01N 01°17' E 103°45'0 0.0
2017-Jun-09 08:30N 01°17' E 103°45'0 0.0
2017-Jun-09 08:01N 01°17' E 103°45'0 0.0
2017-Jun-09 07:31N 01°17' E 103°45'0 0.1
2017-Jun-09 07:01N 01°17' E 103°45'1 1.2
2017-Jun-09 06:30N 01°16' E 103°46'2 3.8
2017-Jun-09 06:01N 01°15' E 103°47'1 1.4
2017-Jun-09 05:30N 01°14' E 103°47'3 5.6
2017-Jun-09 05:01N 01°12' E 103°49'5 9.2
2017-Jun-09 04:30N 01°13' E 103°54'4 6.9
2017-Jun-09 03:59N 01°14' E 103°57'4 8.8
2017-Jun-09 03:30N 01°16' E 104°01'  
2017-Jun-01 01:25N 24°20' E 118°52'  
Track history (hours):
 
Tides and Currents Weather Stations Pressure Air Temp Water Temp Dewpoint Dewpoint Depression Visibility Wind Speed Wind Dir Waves Ship Positions

Grete Maersk

Last reported at 2017-Jun-10 06:02 UTC. Time now 2017-Jun-24 18:58 UTC.
Position N 01°14' E 103°25'.
Warning: this ship's position is 14 days out of date.

MMSI: 218824136.

Date/timePositionNaut miles runAvg speedWind from/ knotsBaromVisibWave heightAir tempDewpointWater temp
2017-Jun-10 06:02N 01°14' E 103°25'117.2
2017-Jun-10 05:58N 01°14' E 103°26'715.4
2017-Jun-10 05:29N 01°12' E 103°33'612.4
2017-Jun-10 04:59N 01°11' E 103°39'611.6
2017-Jun-10 04:30N 01°08' E 103°44'611.2
2017-Jun-10 04:00N 01°11' E 103°49'2 4.9
2017-Jun-10 03:31N 01°13' E 103°48'4 7.4
2017-Jun-10 03:01N 01°16' E 103°45'1 1.0
2017-Jun-10 02:31N 01°17' E 103°45'0 0.1
2017-Jun-10 02:01N 01°17' E 103°45'0 0.0
2017-Jun-10 01:31N 01°17' E 103°45'0 0.0
2017-Jun-10 01:00N 01°17' E 103°45'0 0.0
2017-Jun-10 00:31N 01°17' E 103°45'0 0.0
2017-Jun-10 00:01N 01°17' E 103°45'0 0.0
2017-Jun-09 23:30N 01°17' E 103°45'0 0.0
2017-Jun-09 23:01N 01°17' E 103°45'0 0.0
2017-Jun-09 22:31N 01°17' E 103°45'0 0.0
2017-Jun-09 22:01N 01°17' E 103°45'0 0.0
2017-Jun-09 21:31N 01°17' E 103°45'0 0.0
2017-Jun-09 21:01N 01°17' E 103°45'0 0.0
2017-Jun-09 20:30N 01°17' E 103°45'0 0.0
2017-Jun-09 20:00N 01°17' E 103°45'0 0.0
2017-Jun-09 19:30N 01°17' E 103°45'0 0.0
2017-Jun-09 19:00N 01°17' E 103°45'0 0.0
2017-Jun-09 18:30N 01°17' E 103°45'0 0.0
2017-Jun-09 18:00N 01°17' E 103°45'0 0.0
2017-Jun-09 17:31N 01°17' E 103°45'0 0.0
2017-Jun-09 17:00N 01°17' E 103°45'0 0.0
2017-Jun-09 16:30N 01°17' E 103°45'0 0.0
2017-Jun-09 16:00N 01°17' E 103°45'0 0.0
2017-Jun-09 15:31N 01°17' E 103°45'0 0.0
2017-Jun-09 15:00N 01°17' E 103°45'0 0.0
2017-Jun-09 14:30N 01°17' E 103°45'0 0.0
2017-Jun-09 13:30N 01°17' E 103°45'0 0.0
2017-Jun-09 13:01N 01°17' E 103°45'0 0.0
2017-Jun-09 12:30N 01°17' E 103°45'0 0.0
2017-Jun-09 12:01N 01°17' E 103°45'0 0.0
2017-Jun-09 11:31N 01°17' E 103°45'0 0.0
2017-Jun-09 11:01N 01°17' E 103°45'0 0.0
2017-Jun-09 10:30N 01°17' E 103°45'0 0.0
2017-Jun-09 10:01N 01°17' E 103°45'0 0.0
2017-Jun-09 09:31N 01°17' E 103°45'0 0.0
2017-Jun-09 09:01N 01°17' E 103°45'0 0.0
2017-Jun-09 08:30N 01°17' E 103°45'0 0.0
2017-Jun-09 08:01N 01°17' E 103°45'0 0.0
2017-Jun-09 07:31N 01°17' E 103°45'0 0.1
2017-Jun-09 07:01N 01°17' E 103°45'1 1.2
2017-Jun-09 06:30N 01°16' E 103°46'2 3.8
2017-Jun-09 06:01N 01°15' E 103°47'1 1.4
2017-Jun-09 05:30N 01°14' E 103°47'3 5.6
2017-Jun-09 05:01N 01°12' E 103°49'5 9.2
2017-Jun-09 04:30N 01°13' E 103°54'4 6.9
2017-Jun-09 03:59N 01°14' E 103°57'4 8.8
2017-Jun-09 03:30N 01°16' E 104°01'  
2017-Jun-01 01:25N 24°20' E 118°52'  

Dump ship's entire track history